sensor_id;sensor_type;location;lat;lon;timestamp;noise_LAeq;noise_LA_min;noise_LA_max;noise_LA01;noise_LA95
69610;Laerm;56816;52.192;4.474;2023-04-25T00:00:01;34.30;32.67;36.54;;
69610;Laerm;56816;52.192;4.474;2023-04-25T00:00:12;36.18;32.97;38.78;;
69610;Laerm;56816;52.192;4.474;2023-04-25T00:00:22;39.46;34.09;45.11;;
69610;Laerm;56816;52.192;4.474;2023-04-25T00:00:32;46.48;39.50;52.35;;
69610;Laerm;56816;52.192;4.474;2023-04-25T00:00:43;49.83;43.18;55.62;;
69610;Laerm;56816;52.192;4.474;2023-04-25T00:00:53;50.06;42.05;59.08;;
69610;Laerm;56816;52.192;4.474;2023-04-25T00:01:03;43.94;38.55;51.19;;
69610;Laerm;56816;52.192;4.474;2023-04-25T00:01:14;42.35;36.81;48.56;;
69610;Laerm;56816;52.192;4.474;2023-04-25T00:01:25;41.85;34.98;49.27;;
69610;Laerm;56816;52.192;4.474;2023-04-25T00:01:35;36.80;34.77;38.76;;
69610;Laerm;56816;52.192;4.474;2023-04-25T00:01:46;36.41;33.15;44.08;;
69610;Laerm;56816;52.192;4.474;2023-04-25T00:01:56;42.11;33.63;59.19;;
69610;Laerm;56816;52.192;4.474;2023-04-25T00:02:07;38.81;35.40;43.16;;
69610;Laerm;56816;52.192;4.474;2023-04-25T00:02:18;40.29;36.23;45.40;;
69610;Laerm;56816;52.192;4.474;2023-04-25T00:02:29;43.89;38.60;48.81;;
69610;Laerm;56816;52.192;4.474;2023-04-25T00:02:41;40.99;37.52;50.25;;
69610;Laerm;56816;52.192;4.474;2023-04-25T00:02:52;41.35;38.43;48.16;;
69610;Laerm;56816;52.192;4.474;2023-04-25T00:03:02;47.31;39.93;54.21;;
69610;Laerm;56816;52.192;4.474;2023-04-25T00:03:13;43.37;37.69;55.68;;
69610;Laerm;56816;52.192;4.474;2023-04-25T00:03:23;43.13;39.65;48.22;;
69610;Laerm;56816;52.192;4.474;2023-04-25T00:03:35;41.67;38.39;52.09;;
69610;Laerm;56816;52.192;4.474;2023-04-25T00:03:45;43.37;38.80;53.21;;
69610;Laerm;56816;52.192;4.474;2023-04-25T00:03:56;41.46;37.97;45.28;;
69610;Laerm;56816;52.192;4.474;2023-04-25T00:04:07;42.52;36.37;53.58;;
69610;Laerm;56816;52.192;4.474;2023-04-25T00:04:17;37.99;35.54;42.09;;
69610;Laerm;56816;52.192;4.474;2023-04-25T00:04:27;38.93;35.44;45.78;;
69610;Laerm;56816;52.192;4.474;2023-04-25T00:04:39;39.48;35.28;51.95;;
69610;Laerm;56816;52.192;4.474;2023-04-25T00:04:49;40.75;37.73;47.73;;
69610;Laerm;56816;52.192;4.474;2023-04-25T00:05:00;46.71;37.80;64.47;;
69610;Laerm;56816;52.192;4.474;2023-04-25T00:05:11;42.31;39.25;47.98;;
69610;Laerm;56816;52.192;4.474;2023-04-25T00:05:22;43.18;39.46;49.58;;
69610;Laerm;56816;52.192;4.474;2023-04-25T00:05:33;45.83;39.91;54.85;;
69610;Laerm;56816;52.192;4.474;2023-04-25T00:05:44;40.37;36.86;46.14;;
69610;Laerm;56816;52.192;4.474;2023-04-25T00:05:55;40.84;36.35;52.28;;
69610;Laerm;56816;52.192;4.474;2023-04-25T00:06:06;40.83;37.33;46.21;;
69610;Laerm;56816;52.192;4.474;2023-04-25T00:06:17;38.89;35.61;43.50;;
69610;Laerm;56816;52.192;4.474;2023-04-25T00:06:28;38.48;35.29;43.07;;
69610;Laerm;56816;52.192;4.474;2023-04-25T00:06:39;37.74;34.98;43.28;;
69610;Laerm;56816;52.192;4.474;2023-04-25T00:06:50;38.97;35.80;46.19;;
69610;Laerm;56816;52.192;4.474;2023-04-25T00:07:00;40.92;36.78;49.22;;
69610;Laerm;56816;52.192;4.474;2023-04-25T00:07:13;41.56;36.16;56.05;;
69610;Laerm;56816;52.192;4.474;2023-04-25T00:07:24;41.59;38.21;46.20;;
69610;Laerm;56816;52.192;4.474;2023-04-25T00:07:35;40.48;36.79;45.15;;
69610;Laerm;56816;52.192;4.474;2023-04-25T00:07:45;39.74;33.85;52.75;;
69610;Laerm;56816;52.192;4.474;2023-04-25T00:07:55;35.95;33.97;40.82;;
69610;Laerm;56816;52.192;4.474;2023-04-25T00:08:07;36.42;34.17;39.08;;
69610;Laerm;56816;52.192;4.474;2023-04-25T00:08:17;36.72;34.95;40.47;;
69610;Laerm;56816;52.192;4.474;2023-04-25T00:08:28;37.57;34.54;47.73;;
69610;Laerm;56816;52.192;4.474;2023-04-25T00:08:39;37.81;33.92;45.18;;
69610;Laerm;56816;52.192;4.474;2023-04-25T00:08:49;39.18;36.08;47.30;;
69610;Laerm;56816;52.192;4.474;2023-04-25T00:08:59;38.84;36.52;42.85;;
69610;Laerm;56816;52.192;4.474;2023-04-25T00:09:10;39.14;36.12;45.31;;
69610;Laerm;56816;52.192;4.474;2023-04-25T00:09:21;38.93;35.09;53.22;;
69610;Laerm;56816;52.192;4.474;2023-04-25T00:09:32;39.61;36.59;43.68;;
69610;Laerm;56816;52.192;4.474;2023-04-25T00:09:42;38.06;35.28;41.93;;
69610;Laerm;56816;52.192;4.474;2023-04-25T00:09:53;41.26;36.30;47.26;;
69610;Laerm;56816;52.192;4.474;2023-04-25T00:10:04;37.93;34.34;44.69;;
69610;Laerm;56816;52.192;4.474;2023-04-25T00:10:14;35.59;33.18;38.68;;
69610;Laerm;56816;52.192;4.474;2023-04-25T00:10:24;35.70;33.17;39.45;;
69610;Laerm;56816;52.192;4.474;2023-04-25T00:10:35;36.71;33.69;41.69;;
69610;Laerm;56816;52.192;4.474;2023-04-25T00:10:45;38.95;34.89;45.09;;
69610;Laerm;56816;52.192;4.474;2023-04-25T00:10:56;42.30;35.76;50.01;;
69610;Laerm;56816;52.192;4.474;2023-04-25T00:11:06;36.02;33.34;41.93;;
69610;Laerm;56816;52.192;4.474;2023-04-25T00:11:16;35.22;32.85;39.36;;
69610;Laerm;56816;52.192;4.474;2023-04-25T00:11:27;33.98;32.11;36.11;;
69610;Laerm;56816;52.192;4.474;2023-04-25T00:11:37;34.85;32.14;38.50;;
69610;Laerm;56816;52.192;4.474;2023-04-25T00:11:48;35.89;33.75;39.84;;
69610;Laerm;56816;52.192;4.474;2023-04-25T00:11:58;39.20;34.11;44.81;;
69610;Laerm;56816;52.192;4.474;2023-04-25T00:12:08;35.10;33.31;36.92;;
69610;Laerm;56816;52.192;4.474;2023-04-25T00:12:18;34.44;32.64;38.48;;
69610;Laerm;56816;52.192;4.474;2023-04-25T00:12:29;36.67;33.86;42.85;;
69610;Laerm;56816;52.192;4.474;2023-04-25T00:12:40;38.00;34.07;41.72;;
69610;Laerm;56816;52.192;4.474;2023-04-25T00:12:50;40.03;35.96;45.67;;
69610;Laerm;56816;52.192;4.474;2023-04-25T00:13:00;41.74;34.23;47.73;;
69610;Laerm;56816;52.192;4.474;2023-04-25T00:13:13;37.84;34.11;40.74;;
69610;Laerm;56816;52.192;4.474;2023-04-25T00:13:23;38.94;35.61;42.15;;
69610;Laerm;56816;52.192;4.474;2023-04-25T00:13:35;40.48;35.64;48.17;;
69610;Laerm;56816;52.192;4.474;2023-04-25T00:13:45;42.74;37.48;49.95;;
69610;Laerm;56816;52.192;4.474;2023-04-25T00:13:56;46.53;39.34;60.60;;
69610;Laerm;56816;52.192;4.474;2023-04-25T00:14:07;45.37;38.14;52.75;;
69610;Laerm;56816;52.192;4.474;2023-04-25T00:14:17;37.78;34.73;41.33;;
69610;Laerm;56816;52.192;4.474;2023-04-25T00:14:28;39.17;35.05;44.29;;
69610;Laerm;56816;52.192;4.474;2023-04-25T00:14:38;42.03;34.21;50.64;;
69610;Laerm;56816;52.192;4.474;2023-04-25T00:14:49;36.59;33.74;41.40;;
69610;Laerm;56816;52.192;4.474;2023-04-25T00:15:03;37.69;34.42;42.75;;
69610;Laerm;56816;52.192;4.474;2023-04-25T00:15:13;40.82;34.27;47.66;;
69610;Laerm;56816;52.192;4.474;2023-04-25T00:15:23;40.20;34.15;48.46;;
69610;Laerm;56816;52.192;4.474;2023-04-25T00:15:34;35.55;32.75;38.89;;
69610;Laerm;56816;52.192;4.474;2023-04-25T00:15:46;36.33;33.84;43.54;;
69610;Laerm;56816;52.192;4.474;2023-04-25T00:15:56;38.34;33.77;44.45;;
69610;Laerm;56816;52.192;4.474;2023-04-25T00:16:08;37.01;34.11;42.35;;
69610;Laerm;56816;52.192;4.474;2023-04-25T00:16:18;37.08;34.39;48.40;;
69610;Laerm;56816;52.192;4.474;2023-04-25T00:16:28;37.91;34.84;41.22;;
69610;Laerm;56816;52.192;4.474;2023-04-25T00:16:39;42.03;37.12;46.90;;
69610;Laerm;56816;52.192;4.474;2023-04-25T00:16:51;43.13;37.51;47.64;;
69610;Laerm;56816;52.192;4.474;2023-04-25T00:17:02;42.48;37.24;47.64;;
69610;Laerm;56816;52.192;4.474;2023-04-25T00:17:12;39.18;35.86;43.83;;
69610;Laerm;56816;52.192;4.474;2023-04-25T00:17:23;38.39;33.69;43.13;;
69610;Laerm;56816;52.192;4.474;2023-04-25T00:17:36;37.86;34.57;45.37;;
69610;Laerm;56816;52.192;4.474;2023-04-25T00:17:48;38.19;34.80;44.13;;
69610;Laerm;56816;52.192;4.474;2023-04-25T00:17:58;37.78;35.01;40.46;;
69610;Laerm;56816;52.192;4.474;2023-04-25T00:18:08;38.75;34.38;45.94;;
69610;Laerm;56816;52.192;4.474;2023-04-25T00:18:19;37.36;35.06;39.52;;
69610;Laerm;56816;52.192;4.474;2023-04-25T00:18:30;41.02;35.01;57.17;;
69610;Laerm;56816;52.192;4.474;2023-04-25T00:18:41;41.11;33.92;50.06;;
69610;Laerm;56816;52.192;4.474;2023-04-25T00:18:52;36.81;32.66;53.13;;
69610;Laerm;56816;52.192;4.474;2023-04-25T00:19:03;36.67;33.05;50.69;;
69610;Laerm;56816;52.192;4.474;2023-04-25T00:19:14;36.71;33.71;44.74;;
69610;Laerm;56816;52.192;4.474;2023-04-25T00:19:24;38.74;35.25;44.43;;
69610;Laerm;56816;52.192;4.474;2023-04-25T00:19:34;37.80;33.46;42.39;;
69610;Laerm;56816;52.192;4.474;2023-04-25T00:19:45;37.09;34.75;41.12;;
69610;Laerm;56816;52.192;4.474;2023-04-25T00:19:56;36.55;33.64;39.24;;
69610;Laerm;56816;52.192;4.474;2023-04-25T00:20:08;35.68;33.39;38.63;;
69610;Laerm;56816;52.192;4.474;2023-04-25T00:20:21;37.27;34.66;43.04;;
69610;Laerm;56816;52.192;4.474;2023-04-25T00:20:33;37.50;33.69;43.28;;
69610;Laerm;56816;52.192;4.474;2023-04-25T00:20:43;42.42;35.05;49.71;;
69610;Laerm;56816;52.192;4.474;2023-04-25T00:20:56;38.47;33.81;44.86;;
69610;Laerm;56816;52.192;4.474;2023-04-25T00:21:06;38.01;32.83;49.93;;
69610;Laerm;56816;52.192;4.474;2023-04-25T00:21:18;36.64;33.09;42.26;;
69610;Laerm;56816;52.192;4.474;2023-04-25T00:21:29;35.31;32.71;40.34;;
69610;Laerm;56816;52.192;4.474;2023-04-25T00:21:41;37.57;33.40;44.57;;
69610;Laerm;56816;52.192;4.474;2023-04-25T00:21:51;38.25;35.75;41.97;;
69610;Laerm;56816;52.192;4.474;2023-04-25T00:22:02;39.65;36.75;43.41;;
69610;Laerm;56816;52.192;4.474;2023-04-25T00:22:12;39.16;36.48;44.45;;
69610;Laerm;56816;52.192;4.474;2023-04-25T00:22:23;39.28;35.36;44.09;;
69610;Laerm;56816;52.192;4.474;2023-04-25T00:22:33;37.98;35.46;41.87;;
69610;Laerm;56816;52.192;4.474;2023-04-25T00:22:44;39.47;34.38;51.18;;
69610;Laerm;56816;52.192;4.474;2023-04-25T00:22:55;36.77;33.92;40.64;;
69610;Laerm;56816;52.192;4.474;2023-04-25T00:23:05;35.99;33.21;38.62;;
69610;Laerm;56816;52.192;4.474;2023-04-25T00:23:16;35.93;33.46;41.19;;
69610;Laerm;56816;52.192;4.474;2023-04-25T00:23:28;38.58;34.22;46.94;;
69610;Laerm;56816;52.192;4.474;2023-04-25T00:23:38;36.01;32.60;40.58;;
69610;Laerm;56816;52.192;4.474;2023-04-25T00:23:48;34.11;31.76;36.62;;
69610;Laerm;56816;52.192;4.474;2023-04-25T00:23:59;36.15;32.34;41.18;;
69610;Laerm;56816;52.192;4.474;2023-04-25T00:24:10;33.78;31.72;36.93;;
69610;Laerm;56816;52.192;4.474;2023-04-25T00:24:20;33.64;31.83;36.52;;
69610;Laerm;56816;52.192;4.474;2023-04-25T00:24:30;33.98;32.24;35.79;;
69610;Laerm;56816;52.192;4.474;2023-04-25T00:24:41;34.53;31.78;46.76;;
69610;Laerm;56816;52.192;4.474;2023-04-25T00:24:51;35.98;33.10;39.78;;
69610;Laerm;56816;52.192;4.474;2023-04-25T00:25:04;42.14;35.21;50.70;;
69610;Laerm;56816;52.192;4.474;2023-04-25T00:25:14;39.55;35.12;44.14;;
69610;Laerm;56816;52.192;4.474;2023-04-25T00:25:25;36.98;34.41;40.85;;
69610;Laerm;56816;52.192;4.474;2023-04-25T00:25:35;37.29;34.34;44.84;;
69610;Laerm;56816;52.192;4.474;2023-04-25T00:25:46;39.15;35.59;45.39;;
69610;Laerm;56816;52.192;4.474;2023-04-25T00:25:56;41.71;37.00;46.12;;
69610;Laerm;56816;52.192;4.474;2023-04-25T00:26:06;42.20;37.67;46.65;;
69610;Laerm;56816;52.192;4.474;2023-04-25T00:26:17;38.72;34.74;44.32;;
69610;Laerm;56816;52.192;4.474;2023-04-25T00:26:28;42.33;35.49;48.14;;
69610;Laerm;56816;52.192;4.474;2023-04-25T00:26:38;40.25;35.57;47.43;;
69610;Laerm;56816;52.192;4.474;2023-04-25T00:26:48;38.18;35.36;40.71;;
69610;Laerm;56816;52.192;4.474;2023-04-25T00:26:58;37.00;34.01;41.75;;
69610;Laerm;56816;52.192;4.474;2023-04-25T00:27:09;38.58;36.20;44.80;;
69610;Laerm;56816;52.192;4.474;2023-04-25T00:27:19;42.45;36.77;50.35;;
69610;Laerm;56816;52.192;4.474;2023-04-25T00:27:29;43.13;39.76;47.45;;
69610;Laerm;56816;52.192;4.474;2023-04-25T00:27:39;41.80;38.05;47.38;;
69610;Laerm;56816;52.192;4.474;2023-04-25T00:27:51;41.76;37.27;44.99;;
69610;Laerm;56816;52.192;4.474;2023-04-25T00:28:01;40.56;35.63;47.60;;
69610;Laerm;56816;52.192;4.474;2023-04-25T00:28:12;36.67;33.83;39.90;;
69610;Laerm;56816;52.192;4.474;2023-04-25T00:28:22;36.30;33.00;42.37;;
69610;Laerm;56816;52.192;4.474;2023-04-25T00:28:32;37.17;34.25;40.58;;
69610;Laerm;56816;52.192;4.474;2023-04-25T00:28:43;37.54;33.42;41.04;;
69610;Laerm;56816;52.192;4.474;2023-04-25T00:28:53;35.66;33.46;39.03;;
69610;Laerm;56816;52.192;4.474;2023-04-25T00:29:03;35.84;33.35;38.74;;
69610;Laerm;56816;52.192;4.474;2023-04-25T00:29:14;38.62;34.67;46.17;;
69610;Laerm;56816;52.192;4.474;2023-04-25T00:29:24;37.73;34.35;43.69;;
69610;Laerm;56816;52.192;4.474;2023-04-25T00:29:34;34.91;32.81;36.92;;
69610;Laerm;56816;52.192;4.474;2023-04-25T00:29:44;34.84;32.78;37.05;;
69610;Laerm;56816;52.192;4.474;2023-04-25T00:29:55;34.36;32.26;36.57;;
69610;Laerm;56816;52.192;4.474;2023-04-25T00:30:05;34.06;32.10;38.58;;
69610;Laerm;56816;52.192;4.474;2023-04-25T00:30:15;35.42;33.13;40.33;;
69610;Laerm;56816;52.192;4.474;2023-04-25T00:30:26;36.90;34.16;39.28;;
69610;Laerm;56816;52.192;4.474;2023-04-25T00:30:36;39.46;35.44;43.63;;
69610;Laerm;56816;52.192;4.474;2023-04-25T00:30:46;42.72;38.66;47.02;;
69610;Laerm;56816;52.192;4.474;2023-04-25T00:30:56;41.09;37.19;44.71;;
69610;Laerm;56816;52.192;4.474;2023-04-25T00:31:07;49.85;39.13;57.86;;
69610;Laerm;56816;52.192;4.474;2023-04-25T00:31:17;51.92;41.21;62.71;;
69610;Laerm;56816;52.192;4.474;2023-04-25T00:31:27;41.29;37.97;45.21;;
69610;Laerm;56816;52.192;4.474;2023-04-25T00:31:39;43.05;39.23;46.68;;
69610;Laerm;56816;52.192;4.474;2023-04-25T00:31:49;49.63;39.83;56.86;;
69610;Laerm;56816;52.192;4.474;2023-04-25T00:31:59;45.40;37.85;55.44;;
69610;Laerm;56816;52.192;4.474;2023-04-25T00:32:10;41.65;36.65;52.96;;
69610;Laerm;56816;52.192;4.474;2023-04-25T00:32:20;41.05;34.14;54.19;;
69610;Laerm;56816;52.192;4.474;2023-04-25T00:32:30;37.94;33.85;52.20;;
69610;Laerm;56816;52.192;4.474;2023-04-25T00:32:41;38.06;34.51;42.23;;
69610;Laerm;56816;52.192;4.474;2023-04-25T00:32:51;37.35;33.77;41.53;;
69610;Laerm;56816;52.192;4.474;2023-04-25T00:33:01;40.14;36.55;44.56;;
69610;Laerm;56816;52.192;4.474;2023-04-25T00:33:12;39.83;35.76;44.67;;
69610;Laerm;56816;52.192;4.474;2023-04-25T00:33:22;38.22;35.33;41.41;;
69610;Laerm;56816;52.192;4.474;2023-04-25T00:33:32;42.78;35.89;51.35;;
69610;Laerm;56816;52.192;4.474;2023-04-25T00:33:43;36.88;34.39;39.72;;
69610;Laerm;56816;52.192;4.474;2023-04-25T00:33:53;37.54;34.28;42.72;;
69610;Laerm;56816;52.192;4.474;2023-04-25T00:34:03;37.30;33.69;46.06;;
69610;Laerm;56816;52.192;4.474;2023-04-25T00:34:13;37.85;34.61;44.39;;
69610;Laerm;56816;52.192;4.474;2023-04-25T00:34:24;37.37;34.26;47.14;;
69610;Laerm;56816;52.192;4.474;2023-04-25T00:34:34;39.97;35.07;45.62;;
69610;Laerm;56816;52.192;4.474;2023-04-25T00:34:44;40.07;35.45;45.49;;
69610;Laerm;56816;52.192;4.474;2023-04-25T00:34:54;42.80;37.75;52.42;;
69610;Laerm;56816;52.192;4.474;2023-04-25T00:35:05;44.41;38.02;53.96;;
69610;Laerm;56816;52.192;4.474;2023-04-25T00:35:16;46.33;38.18;58.09;;
69610;Laerm;56816;52.192;4.474;2023-04-25T00:35:26;42.98;36.33;56.30;;
69610;Laerm;56816;52.192;4.474;2023-04-25T00:35:37;45.16;38.28;59.02;;
69610;Laerm;56816;52.192;4.474;2023-04-25T00:35:48;45.14;39.61;53.27;;
69610;Laerm;56816;52.192;4.474;2023-04-25T00:35:58;50.54;42.27;56.34;;
69610;Laerm;56816;52.192;4.474;2023-04-25T00:36:08;47.30;43.25;52.37;;
69610;Laerm;56816;52.192;4.474;2023-04-25T00:36:19;44.79;38.43;50.05;;
69610;Laerm;56816;52.192;4.474;2023-04-25T00:36:29;41.90;37.42;54.82;;
69610;Laerm;56816;52.192;4.474;2023-04-25T00:36:40;41.08;36.99;46.57;;
69610;Laerm;56816;52.192;4.474;2023-04-25T00:36:50;39.93;36.98;44.19;;
69610;Laerm;56816;52.192;4.474;2023-04-25T00:37:01;38.39;35.16;41.90;;
69610;Laerm;56816;52.192;4.474;2023-04-25T00:37:14;39.08;34.94;43.83;;
69610;Laerm;56816;52.192;4.474;2023-04-25T00:37:25;39.30;35.48;43.40;;
69610;Laerm;56816;52.192;4.474;2023-04-25T00:37:35;39.77;36.47;51.20;;
69610;Laerm;56816;52.192;4.474;2023-04-25T00:37:45;39.32;36.47;46.55;;
69610;Laerm;56816;52.192;4.474;2023-04-25T00:37:56;42.38;36.51;52.57;;
69610;Laerm;56816;52.192;4.474;2023-04-25T00:38:06;44.70;37.08;56.65;;
69610;Laerm;56816;52.192;4.474;2023-04-25T00:38:16;38.70;34.86;54.09;;
69610;Laerm;56816;52.192;4.474;2023-04-25T00:38:26;40.87;35.31;51.19;;
69610;Laerm;56816;52.192;4.474;2023-04-25T00:38:37;49.33;35.65;65.28;;
69610;Laerm;56816;52.192;4.474;2023-04-25T00:38:48;38.89;34.87;46.76;;
69610;Laerm;56816;52.192;4.474;2023-04-25T00:38:58;41.55;36.39;57.23;;
69610;Laerm;56816;52.192;4.474;2023-04-25T00:39:08;39.91;36.33;43.88;;
69610;Laerm;56816;52.192;4.474;2023-04-25T00:39:18;41.06;35.35;51.08;;
69610;Laerm;56816;52.192;4.474;2023-04-25T00:39:29;39.65;35.38;48.42;;
69610;Laerm;56816;52.192;4.474;2023-04-25T00:39:39;39.30;34.76;46.69;;
69610;Laerm;56816;52.192;4.474;2023-04-25T00:39:50;37.66;34.58;41.82;;
69610;Laerm;56816;52.192;4.474;2023-04-25T00:40:00;37.55;34.47;40.07;;
69610;Laerm;56816;52.192;4.474;2023-04-25T00:40:11;38.33;34.87;41.94;;
69610;Laerm;56816;52.192;4.474;2023-04-25T00:40:21;42.95;36.09;49.17;;
69610;Laerm;56816;52.192;4.474;2023-04-25T00:40:31;44.42;37.89;57.07;;
69610;Laerm;56816;52.192;4.474;2023-04-25T00:40:42;40.79;36.93;48.24;;
69610;Laerm;56816;52.192;4.474;2023-04-25T00:40:53;44.01;35.35;49.87;;
69610;Laerm;56816;52.192;4.474;2023-04-25T00:41:06;37.63;35.38;40.45;;
69610;Laerm;56816;52.192;4.474;2023-04-25T00:41:16;37.91;34.75;41.39;;
69610;Laerm;56816;52.192;4.474;2023-04-25T00:41:26;38.74;35.16;44.73;;
69610;Laerm;56816;52.192;4.474;2023-04-25T00:41:37;41.29;35.34;53.53;;
69610;Laerm;56816;52.192;4.474;2023-04-25T00:41:48;39.16;35.55;47.07;;
69610;Laerm;56816;52.192;4.474;2023-04-25T00:41:58;40.19;35.34;56.70;;
69610;Laerm;56816;52.192;4.474;2023-04-25T00:42:09;40.41;36.40;46.04;;
69610;Laerm;56816;52.192;4.474;2023-04-25T00:42:19;43.64;38.67;53.34;;
69610;Laerm;56816;52.192;4.474;2023-04-25T00:42:30;43.33;37.99;50.89;;
69610;Laerm;56816;52.192;4.474;2023-04-25T00:42:40;40.74;36.88;46.65;;
69610;Laerm;56816;52.192;4.474;2023-04-25T00:42:51;40.53;36.73;45.29;;
69610;Laerm;56816;52.192;4.474;2023-04-25T00:43:02;40.41;36.07;45.22;;
69610;Laerm;56816;52.192;4.474;2023-04-25T00:43:13;39.47;34.43;45.45;;
69610;Laerm;56816;52.192;4.474;2023-04-25T00:43:25;37.79;33.54;50.73;;
69610;Laerm;56816;52.192;4.474;2023-04-25T00:43:36;40.47;33.60;57.01;;
69610;Laerm;56816;52.192;4.474;2023-04-25T00:43:47;37.77;34.11;53.18;;
69610;Laerm;56816;52.192;4.474;2023-04-25T00:43:58;37.53;32.45;48.74;;
69610;Laerm;56816;52.192;4.474;2023-04-25T00:44:09;35.01;32.39;41.75;;
69610;Laerm;56816;52.192;4.474;2023-04-25T00:44:21;35.76;32.82;51.19;;
69610;Laerm;56816;52.192;4.474;2023-04-25T00:44:31;37.49;33.27;41.26;;
69610;Laerm;56816;52.192;4.474;2023-04-25T00:44:42;37.91;34.98;41.46;;
69610;Laerm;56816;52.192;4.474;2023-04-25T00:44:53;41.59;38.73;45.14;;
69610;Laerm;56816;52.192;4.474;2023-04-25T00:45:04;44.25;38.57;51.20;;
69610;Laerm;56816;52.192;4.474;2023-04-25T00:45:15;42.65;36.84;48.93;;
69610;Laerm;56816;52.192;4.474;2023-04-25T00:45:28;39.46;35.73;44.10;;
69610;Laerm;56816;52.192;4.474;2023-04-25T00:45:42;36.39;32.33;42.22;;
69610;Laerm;56816;52.192;4.474;2023-04-25T00:45:53;37.00;33.19;45.06;;
69610;Laerm;56816;52.192;4.474;2023-04-25T00:46:03;36.66;33.82;41.47;;
69610;Laerm;56816;52.192;4.474;2023-04-25T00:46:13;35.60;32.92;40.51;;
69610;Laerm;56816;52.192;4.474;2023-04-25T00:46:24;41.89;34.69;57.55;;
69610;Laerm;56816;52.192;4.474;2023-04-25T00:46:34;42.86;36.40;50.71;;
69610;Laerm;56816;52.192;4.474;2023-04-25T00:46:45;48.21;37.61;57.96;;
69610;Laerm;56816;52.192;4.474;2023-04-25T00:46:57;47.97;37.75;58.49;;
69610;Laerm;56816;52.192;4.474;2023-04-25T00:47:07;46.90;37.37;57.33;;
69610;Laerm;56816;52.192;4.474;2023-04-25T00:47:18;47.53;35.73;58.64;;
69610;Laerm;56816;52.192;4.474;2023-04-25T00:47:28;49.20;35.00;59.85;;
69610;Laerm;56816;52.192;4.474;2023-04-25T00:47:38;46.55;35.52;59.78;;
69610;Laerm;56816;52.192;4.474;2023-04-25T00:47:50;40.65;33.75;50.09;;
69610;Laerm;56816;52.192;4.474;2023-04-25T00:48:00;43.75;36.56;53.12;;
69610;Laerm;56816;52.192;4.474;2023-04-25T00:48:11;42.99;33.93;55.33;;
69610;Laerm;56816;52.192;4.474;2023-04-25T00:48:23;39.36;32.84;53.70;;
69610;Laerm;56816;52.192;4.474;2023-04-25T00:48:34;45.89;33.48;59.16;;
69610;Laerm;56816;52.192;4.474;2023-04-25T00:48:44;47.69;35.39;61.13;;
69610;Laerm;56816;52.192;4.474;2023-04-25T00:48:54;41.69;34.27;55.66;;
69610;Laerm;56816;52.192;4.474;2023-04-25T00:49:05;43.18;34.18;57.74;;
69610;Laerm;56816;52.192;4.474;2023-04-25T00:49:15;49.06;33.62;61.72;;
69610;Laerm;56816;52.192;4.474;2023-04-25T00:49:26;38.41;34.01;51.82;;
69610;Laerm;56816;52.192;4.474;2023-04-25T00:49:37;41.29;35.03;48.97;;
69610;Laerm;56816;52.192;4.474;2023-04-25T00:49:47;48.66;39.48;53.61;;
69610;Laerm;56816;52.192;4.474;2023-04-25T00:49:57;39.23;35.66;42.25;;
69610;Laerm;56816;52.192;4.474;2023-04-25T00:50:08;38.19;34.68;41.23;;
69610;Laerm;56816;52.192;4.474;2023-04-25T00:50:18;39.94;34.52;53.01;;
69610;Laerm;56816;52.192;4.474;2023-04-25T00:50:28;43.13;37.29;53.03;;
69610;Laerm;56816;52.192;4.474;2023-04-25T00:50:39;42.71;37.87;52.63;;
69610;Laerm;56816;52.192;4.474;2023-04-25T00:50:53;51.85;36.57;61.69;;
69610;Laerm;56816;52.192;4.474;2023-04-25T00:51:04;48.39;39.05;61.60;;
69610;Laerm;56816;52.192;4.474;2023-04-25T00:51:16;44.11;38.28;55.87;;
69610;Laerm;56816;52.192;4.474;2023-04-25T00:51:26;41.42;36.20;51.83;;
69610;Laerm;56816;52.192;4.474;2023-04-25T00:51:36;43.53;38.95;47.97;;
69610;Laerm;56816;52.192;4.474;2023-04-25T00:51:47;46.99;41.78;50.62;;
69610;Laerm;56816;52.192;4.474;2023-04-25T00:51:57;51.45;45.34;56.87;;
69610;Laerm;56816;52.192;4.474;2023-04-25T00:52:08;49.70;46.27;53.77;;
69610;Laerm;56816;52.192;4.474;2023-04-25T00:52:18;45.94;40.23;50.98;;
69610;Laerm;56816;52.192;4.474;2023-04-25T00:52:29;42.30;38.71;50.60;;
69610;Laerm;56816;52.192;4.474;2023-04-25T00:52:40;40.79;36.92;49.69;;
69610;Laerm;56816;52.192;4.474;2023-04-25T00:52:51;42.62;35.94;50.41;;
69610;Laerm;56816;52.192;4.474;2023-04-25T00:53:02;43.56;39.28;49.13;;
69610;Laerm;56816;52.192;4.474;2023-04-25T00:53:13;42.99;38.96;51.70;;
69610;Laerm;56816;52.192;4.474;2023-04-25T00:53:24;39.46;36.73;43.71;;
69610;Laerm;56816;52.192;4.474;2023-04-25T00:53:34;42.69;35.58;55.21;;
69610;Laerm;56816;52.192;4.474;2023-04-25T00:53:44;35.93;34.18;38.37;;
69610;Laerm;56816;52.192;4.474;2023-04-25T00:53:55;36.90;35.04;39.67;;
69610;Laerm;56816;52.192;4.474;2023-04-25T00:54:05;36.70;35.09;42.79;;
69610;Laerm;56816;52.192;4.474;2023-04-25T00:54:15;38.31;35.38;41.44;;
69610;Laerm;56816;52.192;4.474;2023-04-25T00:54:26;40.11;35.45;48.03;;
69610;Laerm;56816;52.192;4.474;2023-04-25T00:54:36;39.48;36.23;44.09;;
69610;Laerm;56816;52.192;4.474;2023-04-25T00:54:47;43.46;39.43;52.05;;
69610;Laerm;56816;52.192;4.474;2023-04-25T00:54:57;40.51;35.93;47.19;;
69610;Laerm;56816;52.192;4.474;2023-04-25T00:55:08;54.96;37.20;62.78;;
69610;Laerm;56816;52.192;4.474;2023-04-25T00:55:18;43.36;36.05;52.82;;
69610;Laerm;56816;52.192;4.474;2023-04-25T00:55:29;40.32;36.21;48.83;;
69610;Laerm;56816;52.192;4.474;2023-04-25T00:55:41;39.85;36.55;45.60;;
69610;Laerm;56816;52.192;4.474;2023-04-25T00:55:52;39.58;36.18;49.16;;
69610;Laerm;56816;52.192;4.474;2023-04-25T00:56:02;37.74;33.72;45.42;;
69610;Laerm;56816;52.192;4.474;2023-04-25T00:56:13;36.37;33.91;46.81;;
69610;Laerm;56816;52.192;4.474;2023-04-25T00:56:23;39.64;33.27;47.52;;
69610;Laerm;56816;52.192;4.474;2023-04-25T00:56:33;39.10;34.51;44.61;;
69610;Laerm;56816;52.192;4.474;2023-04-25T00:56:44;38.17;33.92;44.15;;
69610;Laerm;56816;52.192;4.474;2023-04-25T00:56:55;35.94;33.16;41.68;;
69610;Laerm;56816;52.192;4.474;2023-04-25T00:57:05;39.34;34.21;42.73;;
69610;Laerm;56816;52.192;4.474;2023-04-25T00:57:15;40.46;36.46;46.17;;
69610;Laerm;56816;52.192;4.474;2023-04-25T00:57:26;43.90;38.55;51.99;;
69610;Laerm;56816;52.192;4.474;2023-04-25T00:57:36;41.25;37.01;46.66;;
69610;Laerm;56816;52.192;4.474;2023-04-25T00:57:47;38.26;33.80;43.89;;
69610;Laerm;56816;52.192;4.474;2023-04-25T00:57:57;36.79;34.73;39.76;;
69610;Laerm;56816;52.192;4.474;2023-04-25T00:58:08;36.71;34.23;42.65;;
69610;Laerm;56816;52.192;4.474;2023-04-25T00:58:19;37.78;34.92;41.83;;
69610;Laerm;56816;52.192;4.474;2023-04-25T00:58:29;38.26;35.55;44.47;;
69610;Laerm;56816;52.192;4.474;2023-04-25T00:58:40;40.38;37.10;44.18;;
69610;Laerm;56816;52.192;4.474;2023-04-25T00:58:50;40.10;35.93;45.01;;
69610;Laerm;56816;52.192;4.474;2023-04-25T00:59:03;41.68;37.82;47.50;;
69610;Laerm;56816;52.192;4.474;2023-04-25T00:59:14;42.30;39.09;48.81;;
69610;Laerm;56816;52.192;4.474;2023-04-25T00:59:25;41.03;37.64;44.63;;
69610;Laerm;56816;52.192;4.474;2023-04-25T00:59:35;41.35;36.03;49.46;;
69610;Laerm;56816;52.192;4.474;2023-04-25T00:59:46;38.03;35.38;41.76;;